sensor_id;sensor_type;location;lat;lon;timestamp;P1;durP1;ratioP1;P2;durP2;ratioP2
68178;SDS011;54998;42.656;23.382;2022-08-20T00:03:04;9.38;;;7.60;;
68178;SDS011;54998;42.656;23.382;2022-08-20T00:05:36;8.80;;;6.97;;
68178;SDS011;54998;42.656;23.382;2022-08-20T00:08:04;8.35;;;6.95;;
68178;SDS011;54998;42.656;23.382;2022-08-20T00:10:31;9.35;;;5.97;;
68178;SDS011;54998;42.656;23.382;2022-08-20T00:12:59;10.63;;;6.05;;
68178;SDS011;54998;42.656;23.382;2022-08-20T00:15:27;9.80;;;6.68;;
68178;SDS011;54998;42.656;23.382;2022-08-20T00:17:56;10.32;;;6.38;;
68178;SDS011;54998;42.656;23.382;2022-08-20T00:20:23;8.32;;;6.53;;
68178;SDS011;54998;42.656;23.382;2022-08-20T00:22:51;9.05;;;6.55;;
68178;SDS011;54998;42.656;23.382;2022-08-20T00:25:17;11.13;;;7.05;;
68178;SDS011;54998;42.656;23.382;2022-08-20T00:27:43;9.95;;;7.22;;
68178;SDS011;54998;42.656;23.382;2022-08-20T00:30:10;12.40;;;7.60;;
68178;SDS011;54998;42.656;23.382;2022-08-20T00:32:44;7.93;;;6.60;;
68178;SDS011;54998;42.656;23.382;2022-08-20T00:35:11;10.27;;;7.32;;
68178;SDS011;54998;42.656;23.382;2022-08-20T00:37:38;12.48;;;6.97;;
68178;SDS011;54998;42.656;23.382;2022-08-20T00:40:05;9.93;;;6.05;;
68178;SDS011;54998;42.656;23.382;2022-08-20T00:42:38;10.75;;;7.07;;
68178;SDS011;54998;42.656;23.382;2022-08-20T00:45:05;9.32;;;6.82;;
68178;SDS011;54998;42.656;23.382;2022-08-20T00:47:32;10.90;;;6.38;;
68178;SDS011;54998;42.656;23.382;2022-08-20T00:49:58;9.10;;;7.05;;
68178;SDS011;54998;42.656;23.382;2022-08-20T00:52:23;10.05;;;7.22;;
68178;SDS011;54998;42.656;23.382;2022-08-20T00:54:51;8.93;;;7.90;;
68178;SDS011;54998;42.656;23.382;2022-08-20T00:57:27;10.25;;;7.55;;
68178;SDS011;54998;42.656;23.382;2022-08-20T00:59:55;8.65;;;7.45;;
68178;SDS011;54998;42.656;23.382;2022-08-20T01:02:23;9.80;;;7.50;;
68178;SDS011;54998;42.656;23.382;2022-08-20T01:04:52;9.45;;;7.22;;
68178;SDS011;54998;42.656;23.382;2022-08-20T01:07:22;9.32;;;6.32;;
68178;SDS011;54998;42.656;23.382;2022-08-20T01:09:57;8.90;;;6.95;;
68178;SDS011;54998;42.656;23.382;2022-08-20T01:12:23;10.13;;;6.63;;
68178;SDS011;54998;42.656;23.382;2022-08-20T01:14:51;10.63;;;7.28;;
68178;SDS011;54998;42.656;23.382;2022-08-20T01:17:19;9.75;;;7.20;;
68178;SDS011;54998;42.656;23.382;2022-08-20T01:22:45;9.40;;;7.15;;
68178;SDS011;54998;42.656;23.382;2022-08-20T01:28:12;10.95;;;7.53;;
68178;SDS011;54998;42.656;23.382;2022-08-20T01:30:40;9.95;;;7.05;;
68178;SDS011;54998;42.656;23.382;2022-08-20T01:33:06;10.18;;;7.57;;
68178;SDS011;54998;42.656;23.382;2022-08-20T01:35:39;8.27;;;6.47;;
68178;SDS011;54998;42.656;23.382;2022-08-20T01:38:06;14.00;;;7.70;;
68178;SDS011;54998;42.656;23.382;2022-08-20T01:43:18;9.18;;;7.43;;
68178;SDS011;54998;42.656;23.382;2022-08-20T01:45:44;10.90;;;6.78;;
68178;SDS011;54998;42.656;23.382;2022-08-20T01:48:09;10.18;;;7.13;;
68178;SDS011;54998;42.656;23.382;2022-08-20T01:50:37;8.75;;;7.28;;
68178;SDS011;54998;42.656;23.382;2022-08-20T01:53:18;10.88;;;7.10;;
68178;SDS011;54998;42.656;23.382;2022-08-20T01:55:48;10.23;;;7.75;;
68178;SDS011;54998;42.656;23.382;2022-08-20T01:58:14;9.57;;;6.47;;
68178;SDS011;54998;42.656;23.382;2022-08-20T02:00:39;9.82;;;6.43;;
68178;SDS011;54998;42.656;23.382;2022-08-20T02:03:05;10.80;;;7.85;;
68178;SDS011;54998;42.656;23.382;2022-08-20T02:05:32;11.65;;;7.68;;
68178;SDS011;54998;42.656;23.382;2022-08-20T02:07:59;8.77;;;7.63;;
68178;SDS011;54998;42.656;23.382;2022-08-20T02:12:51;9.70;;;6.63;;
68178;SDS011;54998;42.656;23.382;2022-08-20T02:15:17;9.00;;;7.45;;
68178;SDS011;54998;42.656;23.382;2022-08-20T02:17:43;12.25;;;6.72;;
68178;SDS011;54998;42.656;23.382;2022-08-20T02:20:10;8.73;;;7.70;;
68178;SDS011;54998;42.656;23.382;2022-08-20T02:25:14;12.57;;;7.53;;
68178;SDS011;54998;42.656;23.382;2022-08-20T02:27:43;13.57;;;8.48;;
68178;SDS011;54998;42.656;23.382;2022-08-20T02:30:15;14.60;;;7.82;;
68178;SDS011;54998;42.656;23.382;2022-08-20T02:32:44;10.35;;;8.15;;
68178;SDS011;54998;42.656;23.382;2022-08-20T02:35:10;11.18;;;8.45;;
68178;SDS011;54998;42.656;23.382;2022-08-20T02:37:37;10.02;;;7.60;;
68178;SDS011;54998;42.656;23.382;2022-08-20T02:40:04;11.40;;;7.95;;
68178;SDS011;54998;42.656;23.382;2022-08-20T02:42:32;10.43;;;7.40;;
68178;SDS011;54998;42.656;23.382;2022-08-20T02:44:58;10.10;;;7.70;;
68178;SDS011;54998;42.656;23.382;2022-08-20T02:47:24;9.95;;;7.82;;
68178;SDS011;54998;42.656;23.382;2022-08-20T02:49:51;12.05;;;7.50;;
68178;SDS011;54998;42.656;23.382;2022-08-20T02:52:18;11.73;;;8.13;;
68178;SDS011;54998;42.656;23.382;2022-08-20T02:54:44;10.40;;;7.60;;
68178;SDS011;54998;42.656;23.382;2022-08-20T02:57:14;11.18;;;7.00;;
68178;SDS011;54998;42.656;23.382;2022-08-20T02:59:46;10.27;;;7.50;;
68178;SDS011;54998;42.656;23.382;2022-08-20T03:02:13;10.43;;;7.70;;
68178;SDS011;54998;42.656;23.382;2022-08-20T03:04:40;11.93;;;8.13;;
68178;SDS011;54998;42.656;23.382;2022-08-20T03:07:07;12.32;;;7.70;;
68178;SDS011;54998;42.656;23.382;2022-08-20T03:09:34;16.98;;;8.05;;
68178;SDS011;54998;42.656;23.382;2022-08-20T03:12:01;12.65;;;7.80;;
68178;SDS011;54998;42.656;23.382;2022-08-20T03:14:27;12.77;;;8.07;;
68178;SDS011;54998;42.656;23.382;2022-08-20T03:16:53;11.13;;;6.93;;
68178;SDS011;54998;42.656;23.382;2022-08-20T03:19:18;9.95;;;8.30;;
68178;SDS011;54998;42.656;23.382;2022-08-20T03:21:44;12.60;;;7.20;;
68178;SDS011;54998;42.656;23.382;2022-08-20T03:24:09;10.20;;;7.70;;
68178;SDS011;54998;42.656;23.382;2022-08-20T03:26:35;12.18;;;8.18;;
68178;SDS011;54998;42.656;23.382;2022-08-20T03:29:00;13.20;;;9.05;;
68178;SDS011;54998;42.656;23.382;2022-08-20T03:31:26;10.82;;;8.15;;
68178;SDS011;54998;42.656;23.382;2022-08-20T03:33:51;12.38;;;7.35;;
68178;SDS011;54998;42.656;23.382;2022-08-20T03:36:17;10.50;;;7.80;;
68178;SDS011;54998;42.656;23.382;2022-08-20T03:38:43;10.70;;;7.85;;
68178;SDS011;54998;42.656;23.382;2022-08-20T03:41:08;11.02;;;7.97;;
68178;SDS011;54998;42.656;23.382;2022-08-20T03:43:34;12.80;;;8.50;;
68178;SDS011;54998;42.656;23.382;2022-08-20T03:46:01;10.73;;;7.97;;
68178;SDS011;54998;42.656;23.382;2022-08-20T03:50:53;9.07;;;7.55;;
68178;SDS011;54998;42.656;23.382;2022-08-20T03:53:21;10.50;;;7.90;;
68178;SDS011;54998;42.656;23.382;2022-08-20T03:55:48;10.95;;;7.75;;
68178;SDS011;54998;42.656;23.382;2022-08-20T03:58:15;12.95;;;8.25;;
68178;SDS011;54998;42.656;23.382;2022-08-20T04:03:10;10.52;;;7.97;;
68178;SDS011;54998;42.656;23.382;2022-08-20T04:05:36;12.73;;;8.95;;
68178;SDS011;54998;42.656;23.382;2022-08-20T04:08:05;13.70;;;7.90;;
68178;SDS011;54998;42.656;23.382;2022-08-20T04:10:32;11.52;;;8.48;;
68178;SDS011;54998;42.656;23.382;2022-08-20T04:12:58;13.05;;;7.90;;
68178;SDS011;54998;42.656;23.382;2022-08-20T04:15:23;13.05;;;8.43;;
68178;SDS011;54998;42.656;23.382;2022-08-20T04:17:49;10.13;;;8.00;;
68178;SDS011;54998;42.656;23.382;2022-08-20T04:20:16;11.23;;;8.38;;
68178;SDS011;54998;42.656;23.382;2022-08-20T04:22:46;9.52;;;7.72;;
68178;SDS011;54998;42.656;23.382;2022-08-20T04:25:12;11.75;;;9.20;;
68178;SDS011;54998;42.656;23.382;2022-08-20T04:27:38;15.50;;;8.77;;
68178;SDS011;54998;42.656;23.382;2022-08-20T04:30:06;11.55;;;8.65;;
68178;SDS011;54998;42.656;23.382;2022-08-20T04:32:35;9.48;;;7.95;;
68178;SDS011;54998;42.656;23.382;2022-08-20T04:35:04;11.68;;;8.63;;
68178;SDS011;54998;42.656;23.382;2022-08-20T04:37:31;11.57;;;8.85;;
68178;SDS011;54998;42.656;23.382;2022-08-20T04:42:41;12.00;;;8.55;;
68178;SDS011;54998;42.656;23.382;2022-08-20T04:45:07;13.07;;;6.80;;
68178;SDS011;54998;42.656;23.382;2022-08-20T04:47:33;11.88;;;8.25;;
68178;SDS011;54998;42.656;23.382;2022-08-20T04:49:59;9.85;;;8.45;;
68178;SDS011;54998;42.656;23.382;2022-08-20T04:52:25;12.40;;;8.95;;
68178;SDS011;54998;42.656;23.382;2022-08-20T04:54:52;10.63;;;8.23;;
68178;SDS011;54998;42.656;23.382;2022-08-20T04:57:20;11.75;;;8.68;;
68178;SDS011;54998;42.656;23.382;2022-08-20T04:59:45;11.15;;;7.53;;
68178;SDS011;54998;42.656;23.382;2022-08-20T05:02:11;11.18;;;8.20;;
68178;SDS011;54998;42.656;23.382;2022-08-20T05:04:36;12.50;;;7.15;;
68178;SDS011;54998;42.656;23.382;2022-08-20T05:07:02;15.13;;;8.75;;
68178;SDS011;54998;42.656;23.382;2022-08-20T05:09:27;12.43;;;7.68;;
68178;SDS011;54998;42.656;23.382;2022-08-20T05:11:53;10.95;;;8.77;;
68178;SDS011;54998;42.656;23.382;2022-08-20T05:14:18;12.15;;;8.90;;
68178;SDS011;54998;42.656;23.382;2022-08-20T05:16:43;11.80;;;7.75;;
68178;SDS011;54998;42.656;23.382;2022-08-20T05:19:10;15.68;;;9.65;;
68178;SDS011;54998;42.656;23.382;2022-08-20T05:21:36;10.25;;;9.13;;
68178;SDS011;54998;42.656;23.382;2022-08-20T05:24:02;14.02;;;8.77;;
68178;SDS011;54998;42.656;23.382;2022-08-20T05:26:29;11.80;;;9.30;;
68178;SDS011;54998;42.656;23.382;2022-08-20T05:28:54;14.18;;;9.38;;
68178;SDS011;54998;42.656;23.382;2022-08-20T05:31:20;10.73;;;9.10;;
68178;SDS011;54998;42.656;23.382;2022-08-20T05:33:45;10.68;;;8.65;;
68178;SDS011;54998;42.656;23.382;2022-08-20T05:36:13;12.05;;;9.65;;
68178;SDS011;54998;42.656;23.382;2022-08-20T05:38:39;11.70;;;8.95;;
68178;SDS011;54998;42.656;23.382;2022-08-20T05:41:04;10.65;;;8.52;;
68178;SDS011;54998;42.656;23.382;2022-08-20T05:43:30;12.57;;;8.80;;
68178;SDS011;54998;42.656;23.382;2022-08-20T05:45:57;11.25;;;9.93;;
68178;SDS011;54998;42.656;23.382;2022-08-20T05:50:49;9.88;;;8.40;;
68178;SDS011;54998;42.656;23.382;2022-08-20T05:53:16;10.48;;;9.25;;
68178;SDS011;54998;42.656;23.382;2022-08-20T05:55:43;11.10;;;9.25;;
68178;SDS011;54998;42.656;23.382;2022-08-20T05:58:13;10.77;;;9.45;;
68178;SDS011;54998;42.656;23.382;2022-08-20T06:00:40;13.55;;;9.95;;
68178;SDS011;54998;42.656;23.382;2022-08-20T06:03:06;12.85;;;8.60;;
68178;SDS011;54998;42.656;23.382;2022-08-20T06:05:50;12.15;;;9.63;;
68178;SDS011;54998;42.656;23.382;2022-08-20T06:08:15;12.13;;;9.73;;
68178;SDS011;54998;42.656;23.382;2022-08-20T06:10:41;13.25;;;10.02;;
68178;SDS011;54998;42.656;23.382;2022-08-20T06:13:08;12.65;;;8.40;;
68178;SDS011;54998;42.656;23.382;2022-08-20T06:15:35;12.52;;;10.23;;
68178;SDS011;54998;42.656;23.382;2022-08-20T06:18:01;12.40;;;8.93;;
68178;SDS011;54998;42.656;23.382;2022-08-20T06:20:31;12.30;;;9.98;;
68178;SDS011;54998;42.656;23.382;2022-08-20T06:22:59;13.73;;;10.15;;
68178;SDS011;54998;42.656;23.382;2022-08-20T06:25:24;16.30;;;10.25;;
68178;SDS011;54998;42.656;23.382;2022-08-20T06:27:50;13.70;;;10.02;;
68178;SDS011;54998;42.656;23.382;2022-08-20T06:30:15;13.88;;;9.88;;
68178;SDS011;54998;42.656;23.382;2022-08-20T06:32:41;11.90;;;9.35;;
68178;SDS011;54998;42.656;23.382;2022-08-20T06:35:08;13.10;;;9.85;;
68178;SDS011;54998;42.656;23.382;2022-08-20T06:42:35;13.45;;;10.23;;
68178;SDS011;54998;42.656;23.382;2022-08-20T06:45:07;15.13;;;10.63;;
68178;SDS011;54998;42.656;23.382;2022-08-20T06:47:35;14.43;;;10.77;;
68178;SDS011;54998;42.656;23.382;2022-08-20T06:50:06;14.25;;;10.65;;
68178;SDS011;54998;42.656;23.382;2022-08-20T06:52:33;15.00;;;10.77;;
68178;SDS011;54998;42.656;23.382;2022-08-20T06:54:58;12.50;;;9.70;;
68178;SDS011;54998;42.656;23.382;2022-08-20T06:57:24;11.65;;;9.98;;
68178;SDS011;54998;42.656;23.382;2022-08-20T06:59:49;10.85;;;9.52;;
68178;SDS011;54998;42.656;23.382;2022-08-20T07:02:18;12.63;;;9.82;;
68178;SDS011;54998;42.656;23.382;2022-08-20T07:04:43;11.55;;;9.70;;
68178;SDS011;54998;42.656;23.382;2022-08-20T07:07:14;15.32;;;9.82;;
68178;SDS011;54998;42.656;23.382;2022-08-20T07:09:41;11.25;;;9.65;;
68178;SDS011;54998;42.656;23.382;2022-08-20T07:12:07;12.55;;;10.45;;
68178;SDS011;54998;42.656;23.382;2022-08-20T07:14:34;13.00;;;9.82;;
68178;SDS011;54998;42.656;23.382;2022-08-20T07:17:03;13.82;;;10.25;;
68178;SDS011;54998;42.656;23.382;2022-08-20T07:19:30;9.90;;;8.40;;
68178;SDS011;54998;42.656;23.382;2022-08-20T07:21:55;10.60;;;9.57;;
68178;SDS011;54998;42.656;23.382;2022-08-20T07:24:21;11.40;;;9.50;;
68178;SDS011;54998;42.656;23.382;2022-08-20T07:26:46;13.18;;;8.73;;
68178;SDS011;54998;42.656;23.382;2022-08-20T07:29:12;11.35;;;10.07;;
68178;SDS011;54998;42.656;23.382;2022-08-20T07:31:38;15.48;;;9.10;;
68178;SDS011;54998;42.656;23.382;2022-08-20T07:34:22;10.23;;;9.13;;
68178;SDS011;54998;42.656;23.382;2022-08-20T07:36:47;11.18;;;9.07;;
68178;SDS011;54998;42.656;23.382;2022-08-20T07:39:14;11.43;;;8.93;;
68178;SDS011;54998;42.656;23.382;2022-08-20T07:41:39;13.30;;;10.55;;
68178;SDS011;54998;42.656;23.382;2022-08-20T07:44:05;10.43;;;9.52;;
68178;SDS011;54998;42.656;23.382;2022-08-20T07:46:30;11.77;;;8.85;;
68178;SDS011;54998;42.656;23.382;2022-08-20T07:48:56;12.25;;;9.43;;
68178;SDS011;54998;42.656;23.382;2022-08-20T07:51:22;11.13;;;10.00;;
68178;SDS011;54998;42.656;23.382;2022-08-20T07:53:48;11.23;;;9.52;;
68178;SDS011;54998;42.656;23.382;2022-08-20T07:56:17;11.55;;;10.02;;
68178;SDS011;54998;42.656;23.382;2022-08-20T07:58:46;11.32;;;9.75;;
68178;SDS011;54998;42.656;23.382;2022-08-20T08:01:18;11.70;;;10.50;;
68178;SDS011;54998;42.656;23.382;2022-08-20T08:03:46;12.52;;;9.85;;
68178;SDS011;54998;42.656;23.382;2022-08-20T08:06:12;10.52;;;9.52;;
68178;SDS011;54998;42.656;23.382;2022-08-20T08:08:38;12.32;;;11.23;;
68178;SDS011;54998;42.656;23.382;2022-08-20T08:11:05;12.35;;;10.38;;
68178;SDS011;54998;42.656;23.382;2022-08-20T08:13:32;10.30;;;9.40;;
68178;SDS011;54998;42.656;23.382;2022-08-20T08:16:00;10.50;;;9.50;;
68178;SDS011;54998;42.656;23.382;2022-08-20T08:18:29;12.43;;;11.32;;
68178;SDS011;54998;42.656;23.382;2022-08-20T08:21:00;11.05;;;9.95;;
68178;SDS011;54998;42.656;23.382;2022-08-20T08:23:26;11.23;;;10.13;;
68178;SDS011;54998;42.656;23.382;2022-08-20T08:25:53;12.57;;;10.25;;
68178;SDS011;54998;42.656;23.382;2022-08-20T08:28:18;11.40;;;10.25;;
68178;SDS011;54998;42.656;23.382;2022-08-20T08:30:45;11.55;;;10.35;;
68178;SDS011;54998;42.656;23.382;2022-08-20T08:33:21;11.57;;;10.35;;
68178;SDS011;54998;42.656;23.382;2022-08-20T08:35:57;11.43;;;10.30;;
68178;SDS011;54998;42.656;23.382;2022-08-20T08:38:33;11.80;;;9.52;;
68178;SDS011;54998;42.656;23.382;2022-08-20T08:43:50;11.60;;;10.48;;
68178;SDS011;54998;42.656;23.382;2022-08-20T08:46:19;11.65;;;9.82;;
68178;SDS011;54998;42.656;23.382;2022-08-20T08:48:50;13.00;;;10.98;;
68178;SDS011;54998;42.656;23.382;2022-08-20T08:54:19;10.52;;;9.68;;
68178;SDS011;54998;42.656;23.382;2022-08-20T08:56:49;10.88;;;9.85;;
68178;SDS011;54998;42.656;23.382;2022-08-20T08:59:16;11.48;;;9.95;;
68178;SDS011;54998;42.656;23.382;2022-08-20T09:01:43;11.48;;;10.30;;
68178;SDS011;54998;42.656;23.382;2022-08-20T09:04:15;11.25;;;10.15;;
68178;SDS011;54998;42.656;23.382;2022-08-20T09:06:42;11.55;;;10.45;;
68178;SDS011;54998;42.656;23.382;2022-08-20T09:09:18;11.77;;;10.27;;
68178;SDS011;54998;42.656;23.382;2022-08-20T09:11:48;11.73;;;10.55;;
68178;SDS011;54998;42.656;23.382;2022-08-20T09:14:16;12.05;;;10.77;;
68178;SDS011;54998;42.656;23.382;2022-08-20T09:16:42;12.45;;;11.10;;
68178;SDS011;54998;42.656;23.382;2022-08-20T09:19:07;10.85;;;9.93;;
68178;SDS011;54998;42.656;23.382;2022-08-20T09:21:33;11.05;;;10.00;;
68178;SDS011;54998;42.656;23.382;2022-08-20T09:23:59;12.70;;;10.77;;
68178;SDS011;54998;42.656;23.382;2022-08-20T09:26:25;12.18;;;10.52;;
68178;SDS011;54998;42.656;23.382;2022-08-20T09:28:50;10.30;;;9.40;;
68178;SDS011;54998;42.656;23.382;2022-08-20T09:31:15;12.35;;;11.23;;
68178;SDS011;54998;42.656;23.382;2022-08-20T09:33:41;11.55;;;10.55;;
68178;SDS011;54998;42.656;23.382;2022-08-20T09:36:06;11.68;;;10.57;;
68178;SDS011;54998;42.656;23.382;2022-08-20T09:38:32;11.52;;;10.45;;
68178;SDS011;54998;42.656;23.382;2022-08-20T09:40:57;11.50;;;10.50;;
68178;SDS011;54998;42.656;23.382;2022-08-20T09:43:23;10.88;;;9.88;;
68178;SDS011;54998;42.656;23.382;2022-08-20T09:45:49;11.65;;;10.55;;
68178;SDS011;54998;42.656;23.382;2022-08-20T09:48:14;18.13;;;9.60;;
68178;SDS011;54998;42.656;23.382;2022-08-20T09:50:40;9.85;;;8.90;;
68178;SDS011;54998;42.656;23.382;2022-08-20T09:53:09;12.50;;;11.20;;
68178;SDS011;54998;42.656;23.382;2022-08-20T09:55:36;12.02;;;10.93;;
68178;SDS011;54998;42.656;23.382;2022-08-20T10:00:45;13.20;;;11.15;;
68178;SDS011;54998;42.656;23.382;2022-08-20T10:03:10;11.18;;;9.98;;
68178;SDS011;54998;42.656;23.382;2022-08-20T10:05:36;11.50;;;10.15;;
68178;SDS011;54998;42.656;23.382;2022-08-20T10:08:05;11.52;;;10.52;;
68178;SDS011;54998;42.656;23.382;2022-08-20T10:10:31;12.10;;;11.05;;
68178;SDS011;54998;42.656;23.382;2022-08-20T10:12:57;12.65;;;11.55;;
68178;SDS011;54998;42.656;23.382;2022-08-20T10:15:22;13.00;;;11.70;;
68178;SDS011;54998;42.656;23.382;2022-08-20T10:17:48;13.02;;;11.73;;
68178;SDS011;54998;42.656;23.382;2022-08-20T10:20:13;12.40;;;9.23;;
68178;SDS011;54998;42.656;23.382;2022-08-20T10:22:39;12.40;;;11.40;;
68178;SDS011;54998;42.656;23.382;2022-08-20T10:25:05;12.82;;;11.73;;
68178;SDS011;54998;42.656;23.382;2022-08-20T10:27:31;12.70;;;11.57;;
68178;SDS011;54998;42.656;23.382;2022-08-20T10:29:57;13.02;;;11.40;;
68178;SDS011;54998;42.656;23.382;2022-08-20T10:32:22;12.20;;;11.02;;
68178;SDS011;54998;42.656;23.382;2022-08-20T10:34:48;12.50;;;11.40;;
68178;SDS011;54998;42.656;23.382;2022-08-20T10:37:17;12.77;;;11.20;;
68178;SDS011;54998;42.656;23.382;2022-08-20T10:42:11;11.63;;;10.48;;
68178;SDS011;54998;42.656;23.382;2022-08-20T10:44:37;11.13;;;10.02;;
68178;SDS011;54998;42.656;23.382;2022-08-20T10:47:20;12.07;;;11.00;;
68178;SDS011;54998;42.656;23.382;2022-08-20T10:49:53;12.85;;;10.52;;
68178;SDS011;54998;42.656;23.382;2022-08-20T10:52:20;14.43;;;12.77;;
68178;SDS011;54998;42.656;23.382;2022-08-20T10:54:46;11.30;;;10.30;;
68178;SDS011;54998;42.656;23.382;2022-08-20T10:57:13;12.30;;;10.80;;
68178;SDS011;54998;42.656;23.382;2022-08-20T10:59:41;11.63;;;10.63;;
68178;SDS011;54998;42.656;23.382;2022-08-20T11:02:08;13.23;;;12.00;;
68178;SDS011;54998;42.656;23.382;2022-08-20T11:04:34;25.25;;;22.70;;
68178;SDS011;54998;42.656;23.382;2022-08-20T11:07:09;12.85;;;11.40;;
68178;SDS011;54998;42.656;23.382;2022-08-20T11:09:40;12.60;;;11.40;;
68178;SDS011;54998;42.656;23.382;2022-08-20T11:12:06;11.07;;;9.98;;
68178;SDS011;54998;42.656;23.382;2022-08-20T11:14:32;13.32;;;11.40;;
68178;SDS011;54998;42.656;23.382;2022-08-20T11:16:58;12.40;;;10.85;;
68178;SDS011;54998;42.656;23.382;2022-08-20T11:19:23;11.02;;;9.73;;
68178;SDS011;54998;42.656;23.382;2022-08-20T11:21:49;10.65;;;8.82;;
68178;SDS011;54998;42.656;23.382;2022-08-20T11:24:14;11.55;;;10.55;;
68178;SDS011;54998;42.656;23.382;2022-08-20T11:26:40;11.70;;;9.85;;
68178;SDS011;54998;42.656;23.382;2022-08-20T11:29:05;10.77;;;9.70;;
68178;SDS011;54998;42.656;23.382;2022-08-20T11:31:30;10.85;;;9.77;;
68178;SDS011;54998;42.656;23.382;2022-08-20T11:33:56;10.05;;;8.98;;
68178;SDS011;54998;42.656;23.382;2022-08-20T11:36:21;10.95;;;9.35;;
68178;SDS011;54998;42.656;23.382;2022-08-20T11:38:50;10.32;;;9.32;;
68178;SDS011;54998;42.656;23.382;2022-08-20T11:41:16;10.98;;;9.85;;
68178;SDS011;54998;42.656;23.382;2022-08-20T11:43:41;11.20;;;10.10;;
68178;SDS011;54998;42.656;23.382;2022-08-20T11:46:07;10.57;;;9.55;;
68178;SDS011;54998;42.656;23.382;2022-08-20T11:48:32;10.25;;;9.35;;
68178;SDS011;54998;42.656;23.382;2022-08-20T11:50:58;8.82;;;7.88;;
68178;SDS011;54998;42.656;23.382;2022-08-20T11:53:23;11.27;;;9.55;;
68178;SDS011;54998;42.656;23.382;2022-08-20T11:55:49;10.57;;;9.38;;
68178;SDS011;54998;42.656;23.382;2022-08-20T11:58:14;9.32;;;7.93;;
68178;SDS011;54998;42.656;23.382;2022-08-20T12:00:40;10.32;;;9.20;;
68178;SDS011;54998;42.656;23.382;2022-08-20T12:03:06;11.98;;;10.88;;
68178;SDS011;54998;42.656;23.382;2022-08-20T12:05:32;11.20;;;8.73;;
68178;SDS011;54998;42.656;23.382;2022-08-20T12:08:01;10.20;;;9.13;;
68178;SDS011;54998;42.656;23.382;2022-08-20T12:10:27;11.27;;;9.10;;
68178;SDS011;54998;42.656;23.382;2022-08-20T12:12:54;10.55;;;8.68;;
68178;SDS011;54998;42.656;23.382;2022-08-20T12:15:20;17.40;;;9.68;;
68178;SDS011;54998;42.656;23.382;2022-08-20T12:17:45;11.57;;;8.70;;
68178;SDS011;54998;42.656;23.382;2022-08-20T12:20:11;12.88;;;10.20;;
68178;SDS011;54998;42.656;23.382;2022-08-20T12:22:38;12.02;;;9.02;;
68178;SDS011;54998;42.656;23.382;2022-08-20T12:25:04;10.70;;;9.60;;
68178;SDS011;54998;42.656;23.382;2022-08-20T12:27:31;11.13;;;10.02;;
68178;SDS011;54998;42.656;23.382;2022-08-20T12:29:58;17.42;;;9.90;;
68178;SDS011;54998;42.656;23.382;2022-08-20T12:34:55;10.80;;;9.43;;
68178;SDS011;54998;42.656;23.382;2022-08-20T12:37:22;9.95;;;8.95;;
68178;SDS011;54998;42.656;23.382;2022-08-20T12:39:51;14.75;;;9.77;;
68178;SDS011;54998;42.656;23.382;2022-08-20T12:42:19;16.45;;;11.25;;
68178;SDS011;54998;42.656;23.382;2022-08-20T12:44:45;16.58;;;12.05;;
68178;SDS011;54998;42.656;23.382;2022-08-20T12:49:38;20.23;;;12.70;;
68178;SDS011;54998;42.656;23.382;2022-08-20T12:52:10;16.65;;;9.82;;
68178;SDS011;54998;42.656;23.382;2022-08-20T12:54:36;25.88;;;13.30;;
68178;SDS011;54998;42.656;23.382;2022-08-20T12:57:02;27.95;;;14.73;;
68178;SDS011;54998;42.656;23.382;2022-08-20T12:59:29;24.13;;;15.30;;
68178;SDS011;54998;42.656;23.382;2022-08-20T13:01:54;21.38;;;15.30;;
68178;SDS011;54998;42.656;23.382;2022-08-20T13:04:20;21.60;;;14.80;;
68178;SDS011;54998;42.656;23.382;2022-08-20T13:06:46;20.95;;;14.13;;
68178;SDS011;54998;42.656;23.382;2022-08-20T13:09:12;19.08;;;13.82;;
68178;SDS011;54998;42.656;23.382;2022-08-20T13:11:37;18.77;;;13.00;;
68178;SDS011;54998;42.656;23.382;2022-08-20T13:14:03;15.60;;;12.05;;
68178;SDS011;54998;42.656;23.382;2022-08-20T13:16:28;15.15;;;10.68;;
68178;SDS011;54998;42.656;23.382;2022-08-20T13:18:54;18.90;;;12.38;;
68178;SDS011;54998;42.656;23.382;2022-08-20T13:21:19;18.27;;;11.27;;
68178;SDS011;54998;42.656;23.382;2022-08-20T13:23:45;17.58;;;11.68;;
68178;SDS011;54998;42.656;23.382;2022-08-20T13:26:10;14.77;;;11.75;;
68178;SDS011;54998;42.656;23.382;2022-08-20T13:28:36;14.65;;;12.48;;
68178;SDS011;54998;42.656;23.382;2022-08-20T13:31:01;19.45;;;11.85;;
68178;SDS011;54998;42.656;23.382;2022-08-20T13:33:27;19.13;;;12.80;;
68178;SDS011;54998;42.656;23.382;2022-08-20T13:35:53;20.38;;;13.75;;
68178;SDS011;54998;42.656;23.382;2022-08-20T13:38:19;20.45;;;14.35;;
68178;SDS011;54998;42.656;23.382;2022-08-20T13:40:45;22.85;;;15.98;;
68178;SDS011;54998;42.656;23.382;2022-08-20T13:43:11;18.35;;;14.18;;
68178;SDS011;54998;42.656;23.382;2022-08-20T13:45:36;20.00;;;13.20;;
68178;SDS011;54998;42.656;23.382;2022-08-20T13:48:03;14.45;;;12.43;;
68178;SDS011;54998;42.656;23.382;2022-08-20T13:52:54;17.95;;;14.48;;
68178;SDS011;54998;42.656;23.382;2022-08-20T13:55:21;19.35;;;14.02;;
68178;SDS011;54998;42.656;23.382;2022-08-20T13:57:47;15.85;;;12.18;;
68178;SDS011;54998;42.656;23.382;2022-08-20T14:00:16;13.57;;;11.38;;
68178;SDS011;54998;42.656;23.382;2022-08-20T14:02:45;16.80;;;11.77;;
68178;SDS011;54998;42.656;23.382;2022-08-20T14:05:13;15.65;;;12.32;;
68178;SDS011;54998;42.656;23.382;2022-08-20T14:07:40;14.75;;;10.45;;
68178;SDS011;54998;42.656;23.382;2022-08-20T14:10:11;14.82;;;10.85;;
68178;SDS011;54998;42.656;23.382;2022-08-20T14:12:38;18.70;;;11.40;;
68178;SDS011;54998;42.656;23.382;2022-08-20T14:15:04;18.50;;;12.98;;
68178;SDS011;54998;42.656;23.382;2022-08-20T14:17:34;18.33;;;13.50;;
68178;SDS011;54998;42.656;23.382;2022-08-20T14:20:12;18.55;;;12.98;;
68178;SDS011;54998;42.656;23.382;2022-08-20T14:22:39;18.50;;;13.80;;
68178;SDS011;54998;42.656;23.382;2022-08-20T14:25:06;14.25;;;10.35;;
68178;SDS011;54998;42.656;23.382;2022-08-20T14:27:33;15.73;;;12.73;;
68178;SDS011;54998;42.656;23.382;2022-08-20T14:29:59;18.25;;;13.57;;
68178;SDS011;54998;42.656;23.382;2022-08-20T14:32:25;18.25;;;14.48;;
68178;SDS011;54998;42.656;23.382;2022-08-20T14:34:52;22.60;;;12.63;;
68178;SDS011;54998;42.656;23.382;2022-08-20T14:37:32;19.25;;;15.30;;
68178;SDS011;54998;42.656;23.382;2022-08-20T14:39:59;18.85;;;13.13;;
68178;SDS011;54998;42.656;23.382;2022-08-20T14:42:26;18.45;;;14.00;;
68178;SDS011;54998;42.656;23.382;2022-08-20T14:44:53;17.17;;;13.90;;
68178;SDS011;54998;42.656;23.382;2022-08-20T14:49:47;16.63;;;13.18;;
68178;SDS011;54998;42.656;23.382;2022-08-20T14:52:14;15.80;;;12.50;;
68178;SDS011;54998;42.656;23.382;2022-08-20T14:54:41;18.40;;;14.10;;
68178;SDS011;54998;42.656;23.382;2022-08-20T14:59:33;17.02;;;12.60;;
68178;SDS011;54998;42.656;23.382;2022-08-20T15:02:01;21.90;;;14.68;;
68178;SDS011;54998;42.656;23.382;2022-08-20T15:04:30;21.48;;;15.07;;
68178;SDS011;54998;42.656;23.382;2022-08-20T15:06:56;18.50;;;12.88;;
68178;SDS011;54998;42.656;23.382;2022-08-20T15:09:22;19.10;;;15.18;;
68178;SDS011;54998;42.656;23.382;2022-08-20T15:11:47;21.48;;;15.85;;